sensor_id;sensor_type;location;lat;lon;timestamp;temperature;humidity
3134;DHT22;1577;49.912;10.924;2023-04-06T06:09:18;5.70;72.20
3134;DHT22;1577;49.912;10.924;2023-04-06T06:11:44;3.20;99.90
3134;DHT22;1577;49.912;10.924;2023-04-06T06:14:10;4.50;99.90
3134;DHT22;1577;49.912;10.924;2023-04-06T06:16:35;5.60;99.90
3134;DHT22;1577;49.912;10.924;2023-04-06T06:19:01;6.90;99.90
3134;DHT22;1577;49.912;10.924;2023-04-06T06:21:27;7.90;99.90
3134;DHT22;1577;49.912;10.924;2023-04-06T06:23:53;8.80;99.90
3134;DHT22;1577;49.912;10.924;2023-04-06T06:26:20;9.70;99.40
3134;DHT22;1577;49.912;10.924;2023-04-06T06:28:46;10.40;95.30
3134;DHT22;1577;49.912;10.924;2023-04-06T06:31:11;11.10;93.50
3134;DHT22;1577;49.912;10.924;2023-04-06T06:33:37;11.90;91.50
3134;DHT22;1577;49.912;10.924;2023-04-06T06:36:03;12.50;89.00
3134;DHT22;1577;49.912;10.924;2023-04-06T06:38:28;13.20;87.00
3134;DHT22;1577;49.912;10.924;2023-04-06T06:40:54;13.70;83.40
3134;DHT22;1577;49.912;10.924;2023-04-06T06:43:20;14.00;81.60
3134;DHT22;1577;49.912;10.924;2023-04-06T06:45:46;14.20;78.00
3134;DHT22;1577;49.912;10.924;2023-04-06T06:48:11;13.70;77.20
3134;DHT22;1577;49.912;10.924;2023-04-06T06:50:37;13.10;76.10
3134;DHT22;1577;49.912;10.924;2023-04-06T06:53:03;13.10;77.50
3134;DHT22;1577;49.912;10.924;2023-04-06T06:55:28;13.50;75.70
3134;DHT22;1577;49.912;10.924;2023-04-06T06:57:54;14.00;75.90
3134;DHT22;1577;49.912;10.924;2023-04-06T07:00:20;14.60;73.70
3134;DHT22;1577;49.912;10.924;2023-04-06T07:02:47;15.10;71.10
3134;DHT22;1577;49.912;10.924;2023-04-06T07:05:13;15.60;71.30
3134;DHT22;1577;49.912;10.924;2023-04-06T07:07:38;16.10;69.30
3134;DHT22;1577;49.912;10.924;2023-04-06T07:10:05;16.60;68.00
3134;DHT22;1577;49.912;10.924;2023-04-06T07:12:30;16.70;63.70
3134;DHT22;1577;49.912;10.924;2023-04-06T07:14:56;16.70;61.10
3134;DHT22;1577;49.912;10.924;2023-04-06T07:17:22;15.70;61.30
3134;DHT22;1577;49.912;10.924;2023-04-06T07:19:47;15.50;63.30
3134;DHT22;1577;49.912;10.924;2023-04-06T07:22:13;16.00;63.60
3134;DHT22;1577;49.912;10.924;2023-04-06T07:24:39;15.80;60.20
3134;DHT22;1577;49.912;10.924;2023-04-06T07:27:04;16.00;63.40
3134;DHT22;1577;49.912;10.924;2023-04-06T07:29:30;16.40;60.10
3134;DHT22;1577;49.912;10.924;2023-04-06T07:31:56;16.10;59.00
3134;DHT22;1577;49.912;10.924;2023-04-06T07:34:21;15.50;58.80
3134;DHT22;1577;49.912;10.924;2023-04-06T07:36:47;15.30;59.50
3134;DHT22;1577;49.912;10.924;2023-04-06T07:39:13;15.10;59.20
3134;DHT22;1577;49.912;10.924;2023-04-06T07:41:39;15.20;61.00
3134;DHT22;1577;49.912;10.924;2023-04-06T07:44:05;15.30;59.50
3134;DHT22;1577;49.912;10.924;2023-04-06T07:46:31;15.10;58.50
3134;DHT22;1577;49.912;10.924;2023-04-06T07:48:57;15.00;58.10
3134;DHT22;1577;49.912;10.924;2023-04-06T07:51:23;15.00;59.40
3134;DHT22;1577;49.912;10.924;2023-04-06T07:53:50;15.10;59.10
3134;DHT22;1577;49.912;10.924;2023-04-06T07:56:16;15.40;59.30
3134;DHT22;1577;49.912;10.924;2023-04-06T07:58:42;15.60;58.80
3134;DHT22;1577;49.912;10.924;2023-04-06T08:01:08;15.50;58.00
3134;DHT22;1577;49.912;10.924;2023-04-06T08:03:34;15.60;58.50
3134;DHT22;1577;49.912;10.924;2023-04-06T08:06:00;15.50;57.50
3134;DHT22;1577;49.912;10.924;2023-04-06T08:08:26;15.80;57.60
3134;DHT22;1577;49.912;10.924;2023-04-06T08:10:52;15.70;55.90
3134;DHT22;1577;49.912;10.924;2023-04-06T08:13:17;15.70;57.60
3134;DHT22;1577;49.912;10.924;2023-04-06T08:15:43;15.70;57.40
3134;DHT22;1577;49.912;10.924;2023-04-06T08:18:09;16.00;57.70
3134;DHT22;1577;49.912;10.924;2023-04-06T08:20:35;16.30;55.80
3134;DHT22;1577;49.912;10.924;2023-04-06T08:23:01;16.30;56.10
3134;DHT22;1577;49.912;10.924;2023-04-06T08:25:26;16.50;56.70
3134;DHT22;1577;49.912;10.924;2023-04-06T08:27:52;16.60;55.10
3134;DHT22;1577;49.912;10.924;2023-04-06T08:30:18;16.70;55.40
3134;DHT22;1577;49.912;10.924;2023-04-06T08:32:45;16.80;55.20
3134;DHT22;1577;49.912;10.924;2023-04-06T08:35:11;16.60;54.30
3134;DHT22;1577;49.912;10.924;2023-04-06T08:37:37;16.20;55.70
3134;DHT22;1577;49.912;10.924;2023-04-06T08:40:03;16.10;55.60
3134;DHT22;1577;49.912;10.924;2023-04-06T08:42:32;16.50;55.80
3134;DHT22;1577;49.912;10.924;2023-04-06T08:44:58;16.30;54.10
3134;DHT22;1577;49.912;10.924;2023-04-06T08:47:24;16.00;54.60
3134;DHT22;1577;49.912;10.924;2023-04-06T08:49:50;16.50;56.50
3134;DHT22;1577;49.912;10.924;2023-04-06T08:52:18;16.80;55.00
3134;DHT22;1577;49.912;10.924;2023-04-06T08:54:44;16.90;53.80
3134;DHT22;1577;49.912;10.924;2023-04-06T08:57:10;16.60;54.00
3134;DHT22;1577;49.912;10.924;2023-04-06T08:59:36;16.30;55.30
3134;DHT22;1577;49.912;10.924;2023-04-06T09:02:06;16.30;54.50
3134;DHT22;1577;49.912;10.924;2023-04-06T09:04:36;16.40;56.80
3134;DHT22;1577;49.912;10.924;2023-04-06T09:07:02;16.90;55.70
3134;DHT22;1577;49.912;10.924;2023-04-06T09:09:28;17.30;55.30
3134;DHT22;1577;49.912;10.924;2023-04-06T09:11:53;16.90;54.10
3134;DHT22;1577;49.912;10.924;2023-04-06T09:14:36;16.90;56.10
3134;DHT22;1577;49.912;10.924;2023-04-06T09:17:03;17.30;55.30
3134;DHT22;1577;49.912;10.924;2023-04-06T09:19:29;17.60;55.90
3134;DHT22;1577;49.912;10.924;2023-04-06T09:22:02;17.70;53.20
3134;DHT22;1577;49.912;10.924;2023-04-06T09:24:28;17.40;53.10
3134;DHT22;1577;49.912;10.924;2023-04-06T09:27:04;17.30;54.00
3134;DHT22;1577;49.912;10.924;2023-04-06T09:29:30;17.40;53.50
3134;DHT22;1577;49.912;10.924;2023-04-06T09:32:03;17.40;53.70
3134;DHT22;1577;49.912;10.924;2023-04-06T09:34:28;17.50;53.80
3134;DHT22;1577;49.912;10.924;2023-04-06T09:36:54;17.30;53.10
3134;DHT22;1577;49.912;10.924;2023-04-06T09:39:21;16.90;52.80
3134;DHT22;1577;49.912;10.924;2023-04-06T09:41:52;16.30;53.50
3134;DHT22;1577;49.912;10.924;2023-04-06T09:44:18;16.50;54.60
3134;DHT22;1577;49.912;10.924;2023-04-06T09:46:46;17.00;54.00
3134;DHT22;1577;49.912;10.924;2023-04-06T09:49:12;16.90;50.90
3134;DHT22;1577;49.912;10.924;2023-04-06T09:51:40;16.70;52.40
3134;DHT22;1577;49.912;10.924;2023-04-06T09:54:06;16.70;52.10
3134;DHT22;1577;49.912;10.924;2023-04-06T10:01:56;16.40;53.10
3134;DHT22;1577;49.912;10.924;2023-04-06T10:04:56;16.00;51.70
3134;DHT22;1577;49.912;10.924;2023-04-06T10:07:24;15.60;52.80
3134;DHT22;1577;49.912;10.924;2023-04-06T10:09:53;15.00;52.20
3134;DHT22;1577;49.912;10.924;2023-04-06T10:12:19;14.60;53.40
3134;DHT22;1577;49.912;10.924;2023-04-06T10:14:45;14.50;54.00
3134;DHT22;1577;49.912;10.924;2023-04-06T10:17:11;14.30;52.80
3134;DHT22;1577;49.912;10.924;2023-04-06T10:19:39;14.20;52.70
3134;DHT22;1577;49.912;10.924;2023-04-06T10:22:08;13.80;52.50
3134;DHT22;1577;49.912;10.924;2023-04-06T10:24:37;13.60;52.60
3134;DHT22;1577;49.912;10.924;2023-04-06T10:27:04;13.30;53.00
3134;DHT22;1577;49.912;10.924;2023-04-06T10:29:46;13.20;54.20
3134;DHT22;1577;49.912;10.924;2023-04-06T10:32:12;13.20;54.20
3134;DHT22;1577;49.912;10.924;2023-04-06T10:34:38;13.20;53.90
3134;DHT22;1577;49.912;10.924;2023-04-06T10:37:14;13.10;53.80
3134;DHT22;1577;49.912;10.924;2023-04-06T10:39:55;12.90;52.80
3134;DHT22;1577;49.912;10.924;2023-04-06T10:42:37;12.70;53.70
3134;DHT22;1577;49.912;10.924;2023-04-06T10:45:06;12.40;53.10
3134;DHT22;1577;49.912;10.924;2023-04-06T10:47:40;12.40;54.50
3134;DHT22;1577;49.912;10.924;2023-04-06T10:50:06;12.40;53.50
3134;DHT22;1577;49.912;10.924;2023-04-06T10:52:31;12.40;54.40
3134;DHT22;1577;49.912;10.924;2023-04-06T10:54:57;12.40;54.00
3134;DHT22;1577;49.912;10.924;2023-04-06T10:57:30;12.40;54.50
3134;DHT22;1577;49.912;10.924;2023-04-06T10:59:58;12.40;54.20
3134;DHT22;1577;49.912;10.924;2023-04-06T11:02:24;12.30;53.90
3134;DHT22;1577;49.912;10.924;2023-04-06T11:04:58;12.40;53.70
3134;DHT22;1577;49.912;10.924;2023-04-06T11:07:25;12.40;53.30
3134;DHT22;1577;49.912;10.924;2023-04-06T11:09:52;12.40;52.90
3134;DHT22;1577;49.912;10.924;2023-04-06T11:12:26;12.40;52.20
3134;DHT22;1577;49.912;10.924;2023-04-06T11:14:58;12.30;52.20
3134;DHT22;1577;49.912;10.924;2023-04-06T11:17:31;12.10;52.30
3134;DHT22;1577;49.912;10.924;2023-04-06T11:19:57;12.00;51.80
3134;DHT22;1577;49.912;10.924;2023-04-06T11:22:25;11.80;52.00
3134;DHT22;1577;49.912;10.924;2023-04-06T11:24:51;11.80;53.40
3134;DHT22;1577;49.912;10.924;2023-04-06T11:27:18;11.80;53.10
3134;DHT22;1577;49.912;10.924;2023-04-06T11:29:44;11.80;52.10
3134;DHT22;1577;49.912;10.924;2023-04-06T11:32:21;11.90;51.90
3134;DHT22;1577;49.912;10.924;2023-04-06T11:34:47;12.00;56.20
3134;DHT22;1577;49.912;10.924;2023-04-06T11:37:13;12.10;54.10
3134;DHT22;1577;49.912;10.924;2023-04-06T11:39:43;12.20;53.50
3134;DHT22;1577;49.912;10.924;2023-04-06T11:42:08;12.30;52.80
3134;DHT22;1577;49.912;10.924;2023-04-06T11:47:05;12.30;52.70
3134;DHT22;1577;49.912;10.924;2023-04-06T11:49:33;12.30;52.90
3134;DHT22;1577;49.912;10.924;2023-04-06T11:52:00;12.30;55.20
3134;DHT22;1577;49.912;10.924;2023-04-06T11:54:37;12.40;52.70
3134;DHT22;1577;49.912;10.924;2023-04-06T11:57:03;12.30;51.60
3134;DHT22;1577;49.912;10.924;2023-04-06T11:59:30;12.20;53.90
3134;DHT22;1577;49.912;10.924;2023-04-06T12:01:57;12.30;53.60
3134;DHT22;1577;49.912;10.924;2023-04-06T12:04:23;12.30;52.90
3134;DHT22;1577;49.912;10.924;2023-04-06T12:06:49;12.40;53.30
3134;DHT22;1577;49.912;10.924;2023-04-06T12:09:16;12.30;51.00
3134;DHT22;1577;49.912;10.924;2023-04-06T12:11:43;12.20;50.50
3134;DHT22;1577;49.912;10.924;2023-04-06T12:14:08;12.10;50.30
3134;DHT22;1577;49.912;10.924;2023-04-06T12:16:35;12.10;50.60
3134;DHT22;1577;49.912;10.924;2023-04-06T12:19:01;12.10;52.10
3134;DHT22;1577;49.912;10.924;2023-04-06T12:21:27;12.10;51.40
3134;DHT22;1577;49.912;10.924;2023-04-06T12:23:54;12.00;51.80
3134;DHT22;1577;49.912;10.924;2023-04-06T12:26:20;12.10;51.30
3134;DHT22;1577;49.912;10.924;2023-04-06T12:28:46;12.10;51.60
3134;DHT22;1577;49.912;10.924;2023-04-06T12:31:18;12.10;51.90
3134;DHT22;1577;49.912;10.924;2023-04-06T12:33:49;12.10;50.90
3134;DHT22;1577;49.912;10.924;2023-04-06T12:36:16;11.90;50.70
3134;DHT22;1577;49.912;10.924;2023-04-06T12:38:44;11.80;50.90
3134;DHT22;1577;49.912;10.924;2023-04-06T12:41:11;11.80;50.70
3134;DHT22;1577;49.912;10.924;2023-04-06T12:43:37;11.70;50.50
3134;DHT22;1577;49.912;10.924;2023-04-06T12:46:03;11.60;51.70
3134;DHT22;1577;49.912;10.924;2023-04-06T12:48:29;11.70;52.70
3134;DHT22;1577;49.912;10.924;2023-04-06T12:51:00;11.80;53.00
3134;DHT22;1577;49.912;10.924;2023-04-06T12:53:26;11.90;52.60
3134;DHT22;1577;49.912;10.924;2023-04-06T12:55:54;11.90;53.30
3134;DHT22;1577;49.912;10.924;2023-04-06T12:58:20;11.80;52.70
3134;DHT22;1577;49.912;10.924;2023-04-06T13:00:50;11.90;53.00
3134;DHT22;1577;49.912;10.924;2023-04-06T13:03:17;11.80;52.60
3134;DHT22;1577;49.912;10.924;2023-04-06T13:05:50;11.70;52.60
3134;DHT22;1577;49.912;10.924;2023-04-06T13:08:18;11.60;53.20
3134;DHT22;1577;49.912;10.924;2023-04-06T13:10:48;11.60;53.20
3134;DHT22;1577;49.912;10.924;2023-04-06T13:13:14;11.60;53.50
3134;DHT22;1577;49.912;10.924;2023-04-06T13:15:40;11.70;52.60
3134;DHT22;1577;49.912;10.924;2023-04-06T13:18:07;11.80;52.30
3134;DHT22;1577;49.912;10.924;2023-04-06T13:20:33;11.90;52.40
3134;DHT22;1577;49.912;10.924;2023-04-06T13:22:58;11.90;52.40
3134;DHT22;1577;49.912;10.924;2023-04-06T13:25:24;11.90;52.50
3134;DHT22;1577;49.912;10.924;2023-04-06T13:27:50;11.90;51.70
3134;DHT22;1577;49.912;10.924;2023-04-06T13:30:16;11.80;51.80
3134;DHT22;1577;49.912;10.924;2023-04-06T13:32:42;11.70;52.20
3134;DHT22;1577;49.912;10.924;2023-04-06T13:35:08;11.80;55.60
3134;DHT22;1577;49.912;10.924;2023-04-06T13:37:34;11.90;53.80
3134;DHT22;1577;49.912;10.924;2023-04-06T13:40:02;12.00;52.20
3134;DHT22;1577;49.912;10.924;2023-04-06T13:42:28;11.90;52.30
3134;DHT22;1577;49.912;10.924;2023-04-06T13:44:54;11.90;52.10
3134;DHT22;1577;49.912;10.924;2023-04-06T13:47:20;11.80;52.40
3134;DHT22;1577;49.912;10.924;2023-04-06T13:49:46;11.90;53.10
3134;DHT22;1577;49.912;10.924;2023-04-06T13:52:12;11.80;53.70
3134;DHT22;1577;49.912;10.924;2023-04-06T13:54:38;11.70;53.40
3134;DHT22;1577;49.912;10.924;2023-04-06T13:57:04;11.70;54.20
3134;DHT22;1577;49.912;10.924;2023-04-06T13:59:34;11.80;54.10
3134;DHT22;1577;49.912;10.924;2023-04-06T14:02:01;11.90;52.80
3134;DHT22;1577;49.912;10.924;2023-04-06T14:04:27;11.90;52.70
3134;DHT22;1577;49.912;10.924;2023-04-06T14:06:52;11.90;52.90
3134;DHT22;1577;49.912;10.924;2023-04-06T14:09:18;11.90;52.60
3134;DHT22;1577;49.912;10.924;2023-04-06T14:11:44;11.90;52.90
3134;DHT22;1577;49.912;10.924;2023-04-06T14:14:09;11.90;53.40
3134;DHT22;1577;49.912;10.924;2023-04-06T14:16:35;11.80;53.90
3134;DHT22;1577;49.912;10.924;2023-04-06T14:19:01;11.90;53.60
3134;DHT22;1577;49.912;10.924;2023-04-06T14:21:26;11.90;54.60
3134;DHT22;1577;49.912;10.924;2023-04-06T14:23:52;11.90;54.70
3134;DHT22;1577;49.912;10.924;2023-04-06T14:26:18;11.90;54.20
3134;DHT22;1577;49.912;10.924;2023-04-06T14:28:44;11.80;53.30
3134;DHT22;1577;49.912;10.924;2023-04-06T14:31:14;11.80;53.30
3134;DHT22;1577;49.912;10.924;2023-04-06T14:33:41;11.80;53.60
3134;DHT22;1577;49.912;10.924;2023-04-06T14:36:08;11.80;53.40
3134;DHT22;1577;49.912;10.924;2023-04-06T14:38:34;11.90;53.30
3134;DHT22;1577;49.912;10.924;2023-04-06T14:41:01;11.90;53.60
3134;DHT22;1577;49.912;10.924;2023-04-06T14:43:27;11.80;53.30
3134;DHT22;1577;49.912;10.924;2023-04-06T14:45:53;11.80;53.80
3134;DHT22;1577;49.912;10.924;2023-04-06T14:48:18;11.70;54.50
3134;DHT22;1577;49.912;10.924;2023-04-06T14:50:57;11.70;53.50
3134;DHT22;1577;49.912;10.924;2023-04-06T14:53:23;11.80;53.70
3134;DHT22;1577;49.912;10.924;2023-04-06T14:55:49;11.80;52.80
3134;DHT22;1577;49.912;10.924;2023-04-06T14:58:18;11.80;53.50
3134;DHT22;1577;49.912;10.924;2023-04-06T15:00:44;11.70;53.60
3134;DHT22;1577;49.912;10.924;2023-04-06T15:03:10;11.70;54.30
3134;DHT22;1577;49.912;10.924;2023-04-06T15:05:35;11.80;54.20
3134;DHT22;1577;49.912;10.924;2023-04-06T15:08:01;11.70;54.50
3134;DHT22;1577;49.912;10.924;2023-04-06T15:10:27;11.80;55.60
3134;DHT22;1577;49.912;10.924;2023-04-06T15:12:52;11.80;55.90
3134;DHT22;1577;49.912;10.924;2023-04-06T15:15:19;11.80;55.40
3134;DHT22;1577;49.912;10.924;2023-04-06T15:17:44;11.80;54.80
3134;DHT22;1577;49.912;10.924;2023-04-06T15:20:10;11.80;55.00
3134;DHT22;1577;49.912;10.924;2023-04-06T15:22:36;11.80;54.70
3134;DHT22;1577;49.912;10.924;2023-04-06T15:25:01;11.80;54.10
3134;DHT22;1577;49.912;10.924;2023-04-06T15:27:27;11.70;54.70
3134;DHT22;1577;49.912;10.924;2023-04-06T15:29:53;11.70;54.70
3134;DHT22;1577;49.912;10.924;2023-04-06T15:32:19;11.60;54.70
3134;DHT22;1577;49.912;10.924;2023-04-06T15:34:45;11.60;55.00
3134;DHT22;1577;49.912;10.924;2023-04-06T15:37:10;11.50;54.50
3134;DHT22;1577;49.912;10.924;2023-04-06T15:39:36;11.50;54.30
3134;DHT22;1577;49.912;10.924;2023-04-06T15:42:02;11.50;55.20
3134;DHT22;1577;49.912;10.924;2023-04-06T15:44:28;11.50;54.90
3134;DHT22;1577;49.912;10.924;2023-04-06T15:46:53;11.40;54.60
3134;DHT22;1577;49.912;10.924;2023-04-06T15:49:20;11.40;54.90
3134;DHT22;1577;49.912;10.924;2023-04-06T15:51:49;11.40;55.20
3134;DHT22;1577;49.912;10.924;2023-04-06T15:54:15;11.40;55.00
3134;DHT22;1577;49.912;10.924;2023-04-06T15:56:42;11.40;55.50
3134;DHT22;1577;49.912;10.924;2023-04-06T15:59:08;11.40;55.20
3134;DHT22;1577;49.912;10.924;2023-04-06T16:01:33;11.30;54.20
3134;DHT22;1577;49.912;10.924;2023-04-06T16:03:59;11.30;54.20
3134;DHT22;1577;49.912;10.924;2023-04-06T16:06:24;11.30;54.30
3134;DHT22;1577;49.912;10.924;2023-04-06T16:08:51;11.40;54.60
3134;DHT22;1577;49.912;10.924;2023-04-06T16:11:17;11.40;54.20
3134;DHT22;1577;49.912;10.924;2023-04-06T16:13:42;11.40;54.30
3134;DHT22;1577;49.912;10.924;2023-04-06T16:16:08;11.40;54.70
3134;DHT22;1577;49.912;10.924;2023-04-06T16:18:34;11.30;54.80
3134;DHT22;1577;49.912;10.924;2023-04-06T16:20:59;11.30;54.60
3134;DHT22;1577;49.912;10.924;2023-04-06T16:23:25;11.30;54.70
3134;DHT22;1577;49.912;10.924;2023-04-06T16:25:51;11.30;54.50
3134;DHT22;1577;49.912;10.924;2023-04-06T16:28:19;11.40;55.20
3134;DHT22;1577;49.912;10.924;2023-04-06T16:30:45;11.40;54.80
3134;DHT22;1577;49.912;10.924;2023-04-06T16:33:10;11.40;54.60
3134;DHT22;1577;49.912;10.924;2023-04-06T16:35:45;11.50;55.20
3134;DHT22;1577;49.912;10.924;2023-04-06T16:38:12;11.50;55.10
3134;DHT22;1577;49.912;10.924;2023-04-06T16:40:37;11.50;55.40
3134;DHT22;1577;49.912;10.924;2023-04-06T16:43:03;11.50;55.70
3134;DHT22;1577;49.912;10.924;2023-04-06T16:45:29;11.50;55.60
3134;DHT22;1577;49.912;10.924;2023-04-06T16:47:56;11.50;55.50
3134;DHT22;1577;49.912;10.924;2023-04-06T16:50:21;11.40;55.40
3134;DHT22;1577;49.912;10.924;2023-04-06T16:52:47;11.40;55.20
3134;DHT22;1577;49.912;10.924;2023-04-06T16:55:14;11.30;54.80
3134;DHT22;1577;49.912;10.924;2023-04-06T16:57:40;11.30;54.70
3134;DHT22;1577;49.912;10.924;2023-04-06T17:00:06;11.20;54.50
3134;DHT22;1577;49.912;10.924;2023-04-06T17:02:32;11.20;54.80
3134;DHT22;1577;49.912;10.924;2023-04-06T17:05:01;11.10;54.90
3134;DHT22;1577;49.912;10.924;2023-04-06T17:07:27;11.10;54.90
3134;DHT22;1577;49.912;10.924;2023-04-06T17:09:58;11.00;55.00
3134;DHT22;1577;49.912;10.924;2023-04-06T17:12:24;11.00;55.40
3134;DHT22;1577;49.912;10.924;2023-04-06T17:14:50;10.90;55.00
3134;DHT22;1577;49.912;10.924;2023-04-06T17:17:16;10.90;55.50
3134;DHT22;1577;49.912;10.924;2023-04-06T17:19:41;10.80;55.90
3134;DHT22;1577;49.912;10.924;2023-04-06T17:22:07;10.70;55.40
3134;DHT22;1577;49.912;10.924;2023-04-06T17:24:32;10.60;55.40
3134;DHT22;1577;49.912;10.924;2023-04-06T17:26:58;10.60;55.80
3134;DHT22;1577;49.912;10.924;2023-04-06T17:29:23;10.50;56.40
3134;DHT22;1577;49.912;10.924;2023-04-06T17:31:49;10.40;57.10
3134;DHT22;1577;49.912;10.924;2023-04-06T17:34:15;10.30;57.30
3134;DHT22;1577;49.912;10.924;2023-04-06T17:36:40;10.30;58.60
3134;DHT22;1577;49.912;10.924;2023-04-06T17:39:06;10.20;59.10
3134;DHT22;1577;49.912;10.924;2023-04-06T17:41:32;10.10;59.50
3134;DHT22;1577;49.912;10.924;2023-04-06T17:43:59;10.00;60.10
3134;DHT22;1577;49.912;10.924;2023-04-06T17:46:24;9.90;60.50
3134;DHT22;1577;49.912;10.924;2023-04-06T17:48:50;9.80;60.90
3134;DHT22;1577;49.912;10.924;2023-04-06T17:51:17;9.70;61.90
3134;DHT22;1577;49.912;10.924;2023-04-06T17:53:44;9.60;62.00
3134;DHT22;1577;49.912;10.924;2023-04-06T17:56:10;9.50;62.00
3134;DHT22;1577;49.912;10.924;2023-04-06T17:58:35;9.40;62.70
3134;DHT22;1577;49.912;10.924;2023-04-06T18:01:07;9.30;63.00
3134;DHT22;1577;49.912;10.924;2023-04-06T18:03:35;9.20;64.30
3134;DHT22;1577;49.912;10.924;2023-04-06T18:06:13;9.10;64.90
3134;DHT22;1577;49.912;10.924;2023-04-06T18:08:39;9.00;66.00
3134;DHT22;1577;49.912;10.924;2023-04-06T18:11:05;8.90;66.50
3134;DHT22;1577;49.912;10.924;2023-04-06T18:13:31;8.80;66.90
3134;DHT22;1577;49.912;10.924;2023-04-06T18:15:59;8.70;67.30
3134;DHT22;1577;49.912;10.924;2023-04-06T18:18:26;8.70;68.20
3134;DHT22;1577;49.912;10.924;2023-04-06T18:20:53;8.60;68.80
3134;DHT22;1577;49.912;10.924;2023-04-06T18:23:19;8.50;69.00
3134;DHT22;1577;49.912;10.924;2023-04-06T18:25:45;8.40;69.30
3134;DHT22;1577;49.912;10.924;2023-04-06T18:28:10;8.30;69.90
3134;DHT22;1577;49.912;10.924;2023-04-06T18:30:36;8.20;70.50
3134;DHT22;1577;49.912;10.924;2023-04-06T18:33:02;8.10;71.10
3134;DHT22;1577;49.912;10.924;2023-04-06T18:35:28;8.00;71.60
3134;DHT22;1577;49.912;10.924;2023-04-06T18:37:54;7.90;71.70
3134;DHT22;1577;49.912;10.924;2023-04-06T18:42:57;7.80;72.30
3134;DHT22;1577;49.912;10.924;2023-04-06T18:45:23;7.50;72.20
3134;DHT22;1577;49.912;10.924;2023-04-06T18:47:49;7.50;73.90
